sensor_id;sensor_type;location;lat;lon;timestamp;temperature;humidity
75500;DHT22;64076;51.466;7.260;2024-02-21T00:00:55;25.60;32.90
75500;DHT22;64076;51.466;7.260;2024-02-21T00:03:25;25.60;32.90
75500;DHT22;64076;51.466;7.260;2024-02-21T00:05:51;25.60;32.90
75500;DHT22;64076;51.466;7.260;2024-02-21T00:08:19;25.60;32.90
75500;DHT22;64076;51.466;7.260;2024-02-21T00:10:45;25.60;32.90
75500;DHT22;64076;51.466;7.260;2024-02-21T00:13:10;25.60;32.90
75500;DHT22;64076;51.466;7.260;2024-02-21T00:15:36;25.60;32.90
75500;DHT22;64076;51.466;7.260;2024-02-21T00:18:01;25.60;32.90
75500;DHT22;64076;51.466;7.260;2024-02-21T00:20:27;25.60;32.90
75500;DHT22;64076;51.466;7.260;2024-02-21T00:22:52;25.60;32.90
75500;DHT22;64076;51.466;7.260;2024-02-21T00:25:18;25.60;32.90
75500;DHT22;64076;51.466;7.260;2024-02-21T00:27:43;25.60;33.00
75500;DHT22;64076;51.466;7.260;2024-02-21T00:30:10;25.60;32.90
75500;DHT22;64076;51.466;7.260;2024-02-21T00:32:35;25.60;32.90
75500;DHT22;64076;51.466;7.260;2024-02-21T00:35:01;25.60;32.90
75500;DHT22;64076;51.466;7.260;2024-02-21T00:37:27;25.50;33.00
75500;DHT22;64076;51.466;7.260;2024-02-21T00:39:54;25.50;32.90
75500;DHT22;64076;51.466;7.260;2024-02-21T00:42:19;25.60;33.00
75500;DHT22;64076;51.466;7.260;2024-02-21T00:44:45;25.50;33.00
75500;DHT22;64076;51.466;7.260;2024-02-21T00:47:10;25.60;32.90
75500;DHT22;64076;51.466;7.260;2024-02-21T00:49:36;25.60;33.00
75500;DHT22;64076;51.466;7.260;2024-02-21T00:52:01;25.60;33.00
75500;DHT22;64076;51.466;7.260;2024-02-21T00:54:27;25.50;33.00
75500;DHT22;64076;51.466;7.260;2024-02-21T00:56:53;25.50;33.00
75500;DHT22;64076;51.466;7.260;2024-02-21T00:59:18;25.60;33.00
75500;DHT22;64076;51.466;7.260;2024-02-21T01:01:45;25.50;33.00
75500;DHT22;64076;51.466;7.260;2024-02-21T01:04:10;25.60;33.00
75500;DHT22;64076;51.466;7.260;2024-02-21T01:06:36;25.50;32.90
75500;DHT22;64076;51.466;7.260;2024-02-21T01:09:01;25.50;33.00
75500;DHT22;64076;51.466;7.260;2024-02-21T01:11:27;25.60;32.90
75500;DHT22;64076;51.466;7.260;2024-02-21T01:13:53;25.60;33.00
75500;DHT22;64076;51.466;7.260;2024-02-21T01:16:20;25.60;33.00
75500;DHT22;64076;51.466;7.260;2024-02-21T01:18:45;25.50;33.00
75500;DHT22;64076;51.466;7.260;2024-02-21T01:21:11;25.50;33.00
75500;DHT22;64076;51.466;7.260;2024-02-21T01:23:37;25.50;33.00
75500;DHT22;64076;51.466;7.260;2024-02-21T01:26:03;25.60;33.00
75500;DHT22;64076;51.466;7.260;2024-02-21T01:28:29;25.50;33.00
75500;DHT22;64076;51.466;7.260;2024-02-21T01:30:56;25.50;33.00
75500;DHT22;64076;51.466;7.260;2024-02-21T01:33:21;25.60;33.00
75500;DHT22;64076;51.466;7.260;2024-02-21T01:35:47;25.50;33.00
75500;DHT22;64076;51.466;7.260;2024-02-21T01:38:13;25.50;33.00
75500;DHT22;64076;51.466;7.260;2024-02-21T01:40:38;25.50;33.00
75500;DHT22;64076;51.466;7.260;2024-02-21T01:43:15;25.50;33.00
75500;DHT22;64076;51.466;7.260;2024-02-21T01:45:42;25.50;33.00
75500;DHT22;64076;51.466;7.260;2024-02-21T01:48:07;25.50;33.00
75500;DHT22;64076;51.466;7.260;2024-02-21T01:50:33;25.50;33.00
75500;DHT22;64076;51.466;7.260;2024-02-21T01:52:59;25.50;33.00
75500;DHT22;64076;51.466;7.260;2024-02-21T01:55:25;25.50;33.00
75500;DHT22;64076;51.466;7.260;2024-02-21T01:57:51;25.50;33.00
75500;DHT22;64076;51.466;7.260;2024-02-21T02:00:17;25.50;33.10
75500;DHT22;64076;51.466;7.260;2024-02-21T02:02:44;25.50;33.00
75500;DHT22;64076;51.466;7.260;2024-02-21T02:05:10;25.50;33.00
75500;DHT22;64076;51.466;7.260;2024-02-21T02:07:36;25.50;33.00
75500;DHT22;64076;51.466;7.260;2024-02-21T02:10:02;25.50;33.00
75500;DHT22;64076;51.466;7.260;2024-02-21T02:12:28;25.50;33.00
75500;DHT22;64076;51.466;7.260;2024-02-21T02:15:00;25.50;33.00
75500;DHT22;64076;51.466;7.260;2024-02-21T02:17:26;25.50;33.00
75500;DHT22;64076;51.466;7.260;2024-02-21T02:19:51;25.50;33.00
75500;DHT22;64076;51.466;7.260;2024-02-21T02:22:22;25.50;33.00
75500;DHT22;64076;51.466;7.260;2024-02-21T02:24:49;25.50;33.00
75500;DHT22;64076;51.466;7.260;2024-02-21T02:27:14;25.50;33.00
75500;DHT22;64076;51.466;7.260;2024-02-21T02:29:40;25.50;33.00
75500;DHT22;64076;51.466;7.260;2024-02-21T02:32:06;25.50;33.00
75500;DHT22;64076;51.466;7.260;2024-02-21T02:34:31;25.50;33.00
75500;DHT22;64076;51.466;7.260;2024-02-21T02:36:57;25.50;33.00
75500;DHT22;64076;51.466;7.260;2024-02-21T02:39:22;25.50;33.00
75500;DHT22;64076;51.466;7.260;2024-02-21T02:41:48;25.50;33.00
75500;DHT22;64076;51.466;7.260;2024-02-21T02:44:14;25.50;33.00
75500;DHT22;64076;51.466;7.260;2024-02-21T02:46:42;25.50;33.00
75500;DHT22;64076;51.466;7.260;2024-02-21T02:49:08;25.50;33.00
75500;DHT22;64076;51.466;7.260;2024-02-21T02:51:34;25.50;33.10
75500;DHT22;64076;51.466;7.260;2024-02-21T02:54:00;25.50;33.00
75500;DHT22;64076;51.466;7.260;2024-02-21T02:56:25;25.50;33.00
75500;DHT22;64076;51.466;7.260;2024-02-21T02:58:51;25.50;33.00
75500;DHT22;64076;51.466;7.260;2024-02-21T03:01:16;25.50;33.00
75500;DHT22;64076;51.466;7.260;2024-02-21T03:03:42;25.50;33.00
75500;DHT22;64076;51.466;7.260;2024-02-21T03:06:07;25.50;33.00
75500;DHT22;64076;51.466;7.260;2024-02-21T03:08:33;25.50;33.10
75500;DHT22;64076;51.466;7.260;2024-02-21T03:10:59;25.50;33.10
75500;DHT22;64076;51.466;7.260;2024-02-21T03:13:25;25.50;33.10
75500;DHT22;64076;51.466;7.260;2024-02-21T03:15:51;25.50;33.10
75500;DHT22;64076;51.466;7.260;2024-02-21T03:18:16;25.50;33.10
75500;DHT22;64076;51.466;7.260;2024-02-21T03:20:42;25.50;33.10
75500;DHT22;64076;51.466;7.260;2024-02-21T03:23:08;25.50;33.10
75500;DHT22;64076;51.466;7.260;2024-02-21T03:25:33;25.50;33.10
75500;DHT22;64076;51.466;7.260;2024-02-21T03:27:59;25.50;33.10
75500;DHT22;64076;51.466;7.260;2024-02-21T03:30:24;25.50;33.10
75500;DHT22;64076;51.466;7.260;2024-02-21T03:32:50;25.50;33.10
75500;DHT22;64076;51.466;7.260;2024-02-21T03:35:15;25.50;33.10
75500;DHT22;64076;51.466;7.260;2024-02-21T03:37:41;25.50;33.10
75500;DHT22;64076;51.466;7.260;2024-02-21T03:40:08;25.50;33.10
75500;DHT22;64076;51.466;7.260;2024-02-21T03:42:34;25.50;33.10
75500;DHT22;64076;51.466;7.260;2024-02-21T03:44:59;25.50;33.10
75500;DHT22;64076;51.466;7.260;2024-02-21T03:47:25;25.50;33.00
75500;DHT22;64076;51.466;7.260;2024-02-21T03:49:50;25.50;33.00
75500;DHT22;64076;51.466;7.260;2024-02-21T03:52:16;25.50;33.00
75500;DHT22;64076;51.466;7.260;2024-02-21T03:54:42;25.50;33.00
75500;DHT22;64076;51.466;7.260;2024-02-21T03:57:15;25.50;33.10
75500;DHT22;64076;51.466;7.260;2024-02-21T03:59:40;25.50;33.10
75500;DHT22;64076;51.466;7.260;2024-02-21T04:02:06;25.50;33.00
75500;DHT22;64076;51.466;7.260;2024-02-21T04:04:37;25.50;33.00
75500;DHT22;64076;51.466;7.260;2024-02-21T04:07:03;25.50;33.00
75500;DHT22;64076;51.466;7.260;2024-02-21T04:09:32;25.50;33.00
75500;DHT22;64076;51.466;7.260;2024-02-21T04:11:59;25.50;33.00
75500;DHT22;64076;51.466;7.260;2024-02-21T04:14:25;25.50;33.00
75500;DHT22;64076;51.466;7.260;2024-02-21T04:16:50;25.50;33.00
75500;DHT22;64076;51.466;7.260;2024-02-21T04:19:16;25.50;33.00
75500;DHT22;64076;51.466;7.260;2024-02-21T04:21:41;25.50;33.00
75500;DHT22;64076;51.466;7.260;2024-02-21T04:24:07;25.50;33.00
75500;DHT22;64076;51.466;7.260;2024-02-21T04:26:33;25.50;33.00
75500;DHT22;64076;51.466;7.260;2024-02-21T04:28:58;25.50;33.00
75500;DHT22;64076;51.466;7.260;2024-02-21T04:31:24;25.50;33.00
75500;DHT22;64076;51.466;7.260;2024-02-21T04:33:50;25.50;33.10
75500;DHT22;64076;51.466;7.260;2024-02-21T04:36:15;25.50;33.10
75500;DHT22;64076;51.466;7.260;2024-02-21T04:38:41;25.50;33.00
75500;DHT22;64076;51.466;7.260;2024-02-21T04:41:06;25.50;33.00
75500;DHT22;64076;51.466;7.260;2024-02-21T04:43:32;25.50;33.10
75500;DHT22;64076;51.466;7.260;2024-02-21T04:45:58;25.50;33.10
75500;DHT22;64076;51.466;7.260;2024-02-21T04:48:23;25.50;33.10
75500;DHT22;64076;51.466;7.260;2024-02-21T04:50:49;25.40;33.10
75500;DHT22;64076;51.466;7.260;2024-02-21T04:53:14;25.50;33.10
75500;DHT22;64076;51.466;7.260;2024-02-21T04:55:41;25.50;33.10
75500;DHT22;64076;51.466;7.260;2024-02-21T04:58:07;25.50;33.10
75500;DHT22;64076;51.466;7.260;2024-02-21T05:00:33;25.40;33.10
75500;DHT22;64076;51.466;7.260;2024-02-21T05:02:59;25.40;33.10
75500;DHT22;64076;51.466;7.260;2024-02-21T05:05:24;25.50;33.10
75500;DHT22;64076;51.466;7.260;2024-02-21T05:07:50;25.50;33.00
75500;DHT22;64076;51.466;7.260;2024-02-21T05:10:15;25.50;33.00
75500;DHT22;64076;51.466;7.260;2024-02-21T05:12:42;25.50;33.10
75500;DHT22;64076;51.466;7.260;2024-02-21T05:15:08;25.40;33.00
75500;DHT22;64076;51.466;7.260;2024-02-21T05:17:34;25.40;33.00
75500;DHT22;64076;51.466;7.260;2024-02-21T05:19:59;25.40;33.00
75500;DHT22;64076;51.466;7.260;2024-02-21T05:22:25;25.40;33.00
75500;DHT22;64076;51.466;7.260;2024-02-21T05:24:50;25.50;33.00
75500;DHT22;64076;51.466;7.260;2024-02-21T05:27:16;25.50;33.00
75500;DHT22;64076;51.466;7.260;2024-02-21T05:29:41;25.50;33.00
75500;DHT22;64076;51.466;7.260;2024-02-21T05:32:07;25.50;33.00
75500;DHT22;64076;51.466;7.260;2024-02-21T05:34:32;25.50;33.00
75500;DHT22;64076;51.466;7.260;2024-02-21T05:36:58;25.40;33.00
75500;DHT22;64076;51.466;7.260;2024-02-21T05:39:25;25.50;33.00
75500;DHT22;64076;51.466;7.260;2024-02-21T05:41:50;25.50;33.00
75500;DHT22;64076;51.466;7.260;2024-02-21T05:44:16;25.50;33.00
75500;DHT22;64076;51.466;7.260;2024-02-21T05:46:42;25.50;33.00
75500;DHT22;64076;51.466;7.260;2024-02-21T05:49:07;25.50;32.90
75500;DHT22;64076;51.466;7.260;2024-02-21T05:51:34;25.50;33.00
75500;DHT22;64076;51.466;7.260;2024-02-21T05:54:00;25.50;32.90
75500;DHT22;64076;51.466;7.260;2024-02-21T05:56:25;25.50;33.00
75500;DHT22;64076;51.466;7.260;2024-02-21T05:58:51;25.40;33.00
75500;DHT22;64076;51.466;7.260;2024-02-21T06:01:16;25.40;33.00
75500;DHT22;64076;51.466;7.260;2024-02-21T06:03:43;25.40;33.00
75500;DHT22;64076;51.466;7.260;2024-02-21T06:06:08;25.40;33.00
75500;DHT22;64076;51.466;7.260;2024-02-21T06:08:34;25.40;33.00
75500;DHT22;64076;51.466;7.260;2024-02-21T06:10:59;25.40;33.00
75500;DHT22;64076;51.466;7.260;2024-02-21T06:13:25;25.40;33.00
75500;DHT22;64076;51.466;7.260;2024-02-21T06:15:50;25.40;33.00
75500;DHT22;64076;51.466;7.260;2024-02-21T06:18:19;25.40;32.90
75500;DHT22;64076;51.466;7.260;2024-02-21T06:20:45;25.40;32.70
75500;DHT22;64076;51.466;7.260;2024-02-21T06:23:17;25.50;32.60
75500;DHT22;64076;51.466;7.260;2024-02-21T06:25:43;25.50;32.50
75500;DHT22;64076;51.466;7.260;2024-02-21T06:28:09;25.50;32.40
75500;DHT22;64076;51.466;7.260;2024-02-21T06:30:35;25.40;32.40
75500;DHT22;64076;51.466;7.260;2024-02-21T06:33:00;25.50;32.30
75500;DHT22;64076;51.466;7.260;2024-02-21T06:35:28;25.40;32.30
75500;DHT22;64076;51.466;7.260;2024-02-21T06:37:53;25.40;32.20
75500;DHT22;64076;51.466;7.260;2024-02-21T06:40:23;25.40;32.10
75500;DHT22;64076;51.466;7.260;2024-02-21T06:42:49;25.40;32.10
75500;DHT22;64076;51.466;7.260;2024-02-21T06:45:15;25.40;32.10
75500;DHT22;64076;51.466;7.260;2024-02-21T06:47:41;25.40;32.00
75500;DHT22;64076;51.466;7.260;2024-02-21T06:50:07;25.40;32.00
75500;DHT22;64076;51.466;7.260;2024-02-21T06:52:34;25.40;32.00
75500;DHT22;64076;51.466;7.260;2024-02-21T06:54:59;25.40;31.90
75500;DHT22;64076;51.466;7.260;2024-02-21T06:57:25;25.40;31.90
75500;DHT22;64076;51.466;7.260;2024-02-21T06:59:51;25.40;31.80
75500;DHT22;64076;51.466;7.260;2024-02-21T07:02:16;25.40;31.90
75500;DHT22;64076;51.466;7.260;2024-02-21T07:04:42;25.40;31.80
75500;DHT22;64076;51.466;7.260;2024-02-21T07:07:08;25.40;31.80
75500;DHT22;64076;51.466;7.260;2024-02-21T07:09:34;25.40;31.80
75500;DHT22;64076;51.466;7.260;2024-02-21T07:11:59;25.40;31.70
75500;DHT22;64076;51.466;7.260;2024-02-21T07:14:25;25.40;31.70
75500;DHT22;64076;51.466;7.260;2024-02-21T07:16:51;25.40;31.70
75500;DHT22;64076;51.466;7.260;2024-02-21T07:19:17;25.40;31.70
75500;DHT22;64076;51.466;7.260;2024-02-21T07:21:42;25.40;31.60
75500;DHT22;64076;51.466;7.260;2024-02-21T07:24:08;25.40;31.60
75500;DHT22;64076;51.466;7.260;2024-02-21T07:26:34;25.40;31.60
75500;DHT22;64076;51.466;7.260;2024-02-21T07:29:00;25.40;31.60
75500;DHT22;64076;51.466;7.260;2024-02-21T07:31:25;25.40;31.60
75500;DHT22;64076;51.466;7.260;2024-02-21T07:33:51;25.50;31.60
75500;DHT22;64076;51.466;7.260;2024-02-21T07:36:28;25.50;31.60
75500;DHT22;64076;51.466;7.260;2024-02-21T07:38:54;25.50;31.50
75500;DHT22;64076;51.466;7.260;2024-02-21T07:41:20;25.50;31.60
75500;DHT22;64076;51.466;7.260;2024-02-21T07:43:46;25.50;31.60
75500;DHT22;64076;51.466;7.260;2024-02-21T07:46:13;25.50;31.50
75500;DHT22;64076;51.466;7.260;2024-02-21T07:48:39;25.60;31.60
75500;DHT22;64076;51.466;7.260;2024-02-21T07:51:04;25.60;31.50
75500;DHT22;64076;51.466;7.260;2024-02-21T07:53:30;25.60;31.40
75500;DHT22;64076;51.466;7.260;2024-02-21T07:55:55;25.60;31.50
75500;DHT22;64076;51.466;7.260;2024-02-21T07:58:21;25.60;31.50
75500;DHT22;64076;51.466;7.260;2024-02-21T08:00:46;25.60;31.50
75500;DHT22;64076;51.466;7.260;2024-02-21T08:03:12;25.60;31.60
75500;DHT22;64076;51.466;7.260;2024-02-21T08:05:37;25.60;31.60
75500;DHT22;64076;51.466;7.260;2024-02-21T08:08:04;25.70;31.60
75500;DHT22;64076;51.466;7.260;2024-02-21T08:10:29;25.70;31.50
75500;DHT22;64076;51.466;7.260;2024-02-21T08:12:55;25.60;31.50
75500;DHT22;64076;51.466;7.260;2024-02-21T08:15:20;25.60;31.40
75500;DHT22;64076;51.466;7.260;2024-02-21T08:17:49;25.60;31.50
75500;DHT22;64076;51.466;7.260;2024-02-21T08:20:15;25.70;31.40
75500;DHT22;64076;51.466;7.260;2024-02-21T08:22:40;25.70;31.40
75500;DHT22;64076;51.466;7.260;2024-02-21T08:25:06;25.70;31.40
75500;DHT22;64076;51.466;7.260;2024-02-21T08:27:32;25.70;31.30
75500;DHT22;64076;51.466;7.260;2024-02-21T08:29:57;25.70;31.30
75500;DHT22;64076;51.466;7.260;2024-02-21T08:32:23;25.70;31.20
75500;DHT22;64076;51.466;7.260;2024-02-21T08:34:48;25.70;31.20
75500;DHT22;64076;51.466;7.260;2024-02-21T08:37:14;25.70;31.10
75500;DHT22;64076;51.466;7.260;2024-02-21T08:39:39;25.70;31.10
75500;DHT22;64076;51.466;7.260;2024-02-21T08:42:05;25.70;31.10
75500;DHT22;64076;51.466;7.260;2024-02-21T08:44:31;25.70;31.10
75500;DHT22;64076;51.466;7.260;2024-02-21T08:46:56;25.70;31.10
75500;DHT22;64076;51.466;7.260;2024-02-21T08:49:22;25.80;31.00
75500;DHT22;64076;51.466;7.260;2024-02-21T08:51:47;25.70;31.10
75500;DHT22;64076;51.466;7.260;2024-02-21T08:54:13;25.80;31.10
75500;DHT22;64076;51.466;7.260;2024-02-21T08:56:38;25.80;31.10
75500;DHT22;64076;51.466;7.260;2024-02-21T08:59:04;25.80;31.10
75500;DHT22;64076;51.466;7.260;2024-02-21T09:01:29;25.80;31.10
75500;DHT22;64076;51.466;7.260;2024-02-21T09:03:55;25.80;31.20
75500;DHT22;64076;51.466;7.260;2024-02-21T09:06:22;25.70;31.30
75500;DHT22;64076;51.466;7.260;2024-02-21T09:08:48;25.70;31.30
75500;DHT22;64076;51.466;7.260;2024-02-21T09:11:14;25.80;31.30
75500;DHT22;64076;51.466;7.260;2024-02-21T09:13:40;25.80;31.30
75500;DHT22;64076;51.466;7.260;2024-02-21T09:16:06;25.80;31.40
75500;DHT22;64076;51.466;7.260;2024-02-21T09:18:31;25.80;31.40
75500;DHT22;64076;51.466;7.260;2024-02-21T09:20:57;25.80;31.40
75500;DHT22;64076;51.466;7.260;2024-02-21T09:23:25;25.80;31.50
75500;DHT22;64076;51.466;7.260;2024-02-21T09:25:51;25.80;31.40
75500;DHT22;64076;51.466;7.260;2024-02-21T09:28:19;25.80;31.40
75500;DHT22;64076;51.466;7.260;2024-02-21T09:30:45;25.90;31.50
75500;DHT22;64076;51.466;7.260;2024-02-21T09:33:11;25.80;31.60
75500;DHT22;64076;51.466;7.260;2024-02-21T09:35:36;25.80;31.60
75500;DHT22;64076;51.466;7.260;2024-02-21T09:38:04;25.70;31.70
75500;DHT22;64076;51.466;7.260;2024-02-21T09:40:30;25.50;31.90
75500;DHT22;64076;51.466;7.260;2024-02-21T09:43:04;25.40;32.10
75500;DHT22;64076;51.466;7.260;2024-02-21T09:45:32;25.20;32.20
75500;DHT22;64076;51.466;7.260;2024-02-21T09:50:30;25.10;32.50
75500;DHT22;64076;51.466;7.260;2024-02-21T09:52:58;25.10;32.50
75500;DHT22;64076;51.466;7.260;2024-02-21T09:55:27;25.10;32.50
75500;DHT22;64076;51.466;7.260;2024-02-21T09:57:55;25.20;32.50
75500;DHT22;64076;51.466;7.260;2024-02-21T10:00:22;25.20;32.50
75500;DHT22;64076;51.466;7.260;2024-02-21T10:02:50;25.30;32.50
75500;DHT22;64076;51.466;7.260;2024-02-21T10:05:16;25.30;32.40
75500;DHT22;64076;51.466;7.260;2024-02-21T10:07:43;25.40;32.40
75500;DHT22;64076;51.466;7.260;2024-02-21T10:10:09;25.40;32.50
75500;DHT22;64076;51.466;7.260;2024-02-21T10:12:35;25.40;32.50
75500;DHT22;64076;51.466;7.260;2024-02-21T10:15:02;25.50;32.50
75500;DHT22;64076;51.466;7.260;2024-02-21T10:17:27;25.50;32.40
75500;DHT22;64076;51.466;7.260;2024-02-21T10:19:53;25.50;32.30
75500;DHT22;64076;51.466;7.260;2024-02-21T10:22:18;25.50;32.20
75500;DHT22;64076;51.466;7.260;2024-02-21T10:24:46;25.40;32.30
75500;DHT22;64076;51.466;7.260;2024-02-21T10:27:11;25.50;32.40
75500;DHT22;64076;51.466;7.260;2024-02-21T10:29:38;25.50;32.30
75500;DHT22;64076;51.466;7.260;2024-02-21T10:32:11;25.60;32.40
75500;DHT22;64076;51.466;7.260;2024-02-21T10:34:38;25.60;32.30
75500;DHT22;64076;51.466;7.260;2024-02-21T10:37:08;25.60;32.30
75500;DHT22;64076;51.466;7.260;2024-02-21T10:39:37;25.60;32.10
75500;DHT22;64076;51.466;7.260;2024-02-21T10:42:03;25.60;32.00
75500;DHT22;64076;51.466;7.260;2024-02-21T10:44:30;25.60;32.10
75500;DHT22;64076;51.466;7.260;2024-02-21T10:46:56;25.60;32.10
75500;DHT22;64076;51.466;7.260;2024-02-21T10:49:26;25.60;32.00
75500;DHT22;64076;51.466;7.260;2024-02-21T10:54:50;25.70;31.90
75500;DHT22;64076;51.466;7.260;2024-02-21T10:57:19;25.80;31.60
75500;DHT22;64076;51.466;7.260;2024-02-21T10:59:48;25.70;31.50
75500;DHT22;64076;51.466;7.260;2024-02-21T11:02:14;25.60;31.40
75500;DHT22;64076;51.466;7.260;2024-02-21T11:04:41;25.50;31.50
75500;DHT22;64076;51.466;7.260;2024-02-21T11:07:07;25.40;31.50
75500;DHT22;64076;51.466;7.260;2024-02-21T11:09:33;25.30;31.50
75500;DHT22;64076;51.466;7.260;2024-02-21T11:12:03;25.20;31.60
75500;DHT22;64076;51.466;7.260;2024-02-21T11:14:29;25.10;31.60
75500;DHT22;64076;51.466;7.260;2024-02-21T11:17:01;25.10;31.60
75500;DHT22;64076;51.466;7.260;2024-02-21T11:19:28;25.00;31.60
75500;DHT22;64076;51.466;7.260;2024-02-21T11:21:58;24.90;31.60
75500;DHT22;64076;51.466;7.260;2024-02-21T11:24:33;24.90;31.60
75500;DHT22;64076;51.466;7.260;2024-02-21T11:27:09;24.90;31.60
75500;DHT22;64076;51.466;7.260;2024-02-21T11:29:47;24.90;31.50
75500;DHT22;64076;51.466;7.260;2024-02-21T11:32:16;24.80;31.50
75500;DHT22;64076;51.466;7.260;2024-02-21T11:34:57;24.70;31.50
75500;DHT22;64076;51.466;7.260;2024-02-21T11:37:33;24.70;31.60
75500;DHT22;64076;51.466;7.260;2024-02-21T11:40:00;24.60;31.60
75500;DHT22;64076;51.466;7.260;2024-02-21T11:42:29;24.60;31.70
75500;DHT22;64076;51.466;7.260;2024-02-21T11:44:56;24.60;31.70
75500;DHT22;64076;51.466;7.260;2024-02-21T11:47:23;24.50;31.70
75500;DHT22;64076;51.466;7.260;2024-02-21T11:49:49;24.60;31.60
75500;DHT22;64076;51.466;7.260;2024-02-21T11:52:21;24.60;31.50
75500;DHT22;64076;51.466;7.260;2024-02-21T11:54:47;24.60;31.50
75500;DHT22;64076;51.466;7.260;2024-02-21T11:57:13;24.60;31.40
75500;DHT22;64076;51.466;7.260;2024-02-21T11:59:40;24.50;31.40
75500;DHT22;64076;51.466;7.260;2024-02-21T12:02:06;24.60;31.40
75500;DHT22;64076;51.466;7.260;2024-02-21T12:04:35;24.60;31.30
75500;DHT22;64076;51.466;7.260;2024-02-21T12:07:00;24.60;31.40
75500;DHT22;64076;51.466;7.260;2024-02-21T12:09:29;24.50;31.40
75500;DHT22;64076;51.466;7.260;2024-02-21T12:12:05;24.50;31.40
75500;DHT22;64076;51.466;7.260;2024-02-21T12:14:32;24.50;31.40
75500;DHT22;64076;51.466;7.260;2024-02-21T12:16:59;24.60;31.30
75500;DHT22;64076;51.466;7.260;2024-02-21T12:19:28;24.50;31.30
75500;DHT22;64076;51.466;7.260;2024-02-21T12:21:54;24.50;31.30
75500;DHT22;64076;51.466;7.260;2024-02-21T12:24:27;24.50;31.20
75500;DHT22;64076;51.466;7.260;2024-02-21T12:26:54;24.60;31.20
75500;DHT22;64076;51.466;7.260;2024-02-21T12:29:20;24.70;31.20
75500;DHT22;64076;51.466;7.260;2024-02-21T12:31:46;24.80;30.90
75500;DHT22;64076;51.466;7.260;2024-02-21T12:34:12;24.80;31.00
75500;DHT22;64076;51.466;7.260;2024-02-21T12:36:41;24.80;30.90
75500;DHT22;64076;51.466;7.260;2024-02-21T12:39:12;24.90;30.80
75500;DHT22;64076;51.466;7.260;2024-02-21T12:41:38;25.00;30.70
75500;DHT22;64076;51.466;7.260;2024-02-21T12:44:07;25.10;30.60
75500;DHT22;64076;51.466;7.260;2024-02-21T12:46:36;25.10;30.70
75500;DHT22;64076;51.466;7.260;2024-02-21T12:49:02;25.20;30.50
75500;DHT22;64076;51.466;7.260;2024-02-21T12:51:28;25.30;30.50
75500;DHT22;64076;51.466;7.260;2024-02-21T12:53:57;25.30;30.30
75500;DHT22;64076;51.466;7.260;2024-02-21T12:56:22;25.30;30.30
75500;DHT22;64076;51.466;7.260;2024-02-21T12:58:48;25.30;30.30
75500;DHT22;64076;51.466;7.260;2024-02-21T13:01:14;25.30;30.30
75500;DHT22;64076;51.466;7.260;2024-02-21T13:03:39;25.40;30.30
75500;DHT22;64076;51.466;7.260;2024-02-21T13:06:05;25.40;30.20
75500;DHT22;64076;51.466;7.260;2024-02-21T13:08:36;25.50;30.20
75500;DHT22;64076;51.466;7.260;2024-02-21T13:11:01;25.50;30.20
75500;DHT22;64076;51.466;7.260;2024-02-21T13:13:27;25.50;30.10
75500;DHT22;64076;51.466;7.260;2024-02-21T13:15:53;25.60;30.10
75500;DHT22;64076;51.466;7.260;2024-02-21T13:18:18;25.60;30.00
75500;DHT22;64076;51.466;7.260;2024-02-21T13:20:44;25.50;30.00
75500;DHT22;64076;51.466;7.260;2024-02-21T13:23:09;25.50;30.00
75500;DHT22;64076;51.466;7.260;2024-02-21T13:25:35;25.50;30.10
75500;DHT22;64076;51.466;7.260;2024-02-21T13:28:00;25.50;30.00
75500;DHT22;64076;51.466;7.260;2024-02-21T13:30:27;25.60;30.10
75500;DHT22;64076;51.466;7.260;2024-02-21T13:32:52;25.60;30.00
75500;DHT22;64076;51.466;7.260;2024-02-21T13:35:20;25.70;29.90
75500;DHT22;64076;51.466;7.260;2024-02-21T13:37:46;25.70;30.00
75500;DHT22;64076;51.466;7.260;2024-02-21T13:40:12;25.70;30.00
75500;DHT22;64076;51.466;7.260;2024-02-21T13:42:41;25.70;29.90
75500;DHT22;64076;51.466;7.260;2024-02-21T13:45:07;25.70;29.90
75500;DHT22;64076;51.466;7.260;2024-02-21T13:47:33;25.80;29.90
75500;DHT22;64076;51.466;7.260;2024-02-21T13:49:59;25.80;29.70
75500;DHT22;64076;51.466;7.260;2024-02-21T13:52:24;25.70;29.70
75500;DHT22;64076;51.466;7.260;2024-02-21T13:54:52;25.60;29.70
75500;DHT22;64076;51.466;7.260;2024-02-21T13:57:17;25.60;29.80
75500;DHT22;64076;51.466;7.260;2024-02-21T13:59:43;25.70;29.80
75500;DHT22;64076;51.466;7.260;2024-02-21T14:02:08;25.70;29.80
75500;DHT22;64076;51.466;7.260;2024-02-21T14:04:34;25.80;29.70
75500;DHT22;64076;51.466;7.260;2024-02-21T14:07:00;25.80;29.90
75500;DHT22;64076;51.466;7.260;2024-02-21T14:09:26;25.80;29.90
75500;DHT22;64076;51.466;7.260;2024-02-21T14:11:52;25.80;29.90
75500;DHT22;64076;51.466;7.260;2024-02-21T14:14:18;25.80;29.60
75500;DHT22;64076;51.466;7.260;2024-02-21T14:16:44;25.60;29.70
75500;DHT22;64076;51.466;7.260;2024-02-21T14:19:09;25.50;29.80
75500;DHT22;64076;51.466;7.260;2024-02-21T14:21:37;25.30;29.80
75500;DHT22;64076;51.466;7.260;2024-02-21T14:24:04;25.20;29.90
75500;DHT22;64076;51.466;7.260;2024-02-21T14:26:33;25.10;30.00
75500;DHT22;64076;51.466;7.260;2024-02-21T14:28:59;25.10;30.10
75500;DHT22;64076;51.466;7.260;2024-02-21T14:31:24;25.20;30.00
75500;DHT22;64076;51.466;7.260;2024-02-21T14:33:50;25.30;29.90
75500;DHT22;64076;51.466;7.260;2024-02-21T14:36:16;25.40;29.90
75500;DHT22;64076;51.466;7.260;2024-02-21T14:38:42;25.40;29.90
75500;DHT22;64076;51.466;7.260;2024-02-21T14:41:08;25.50;29.80
75500;DHT22;64076;51.466;7.260;2024-02-21T14:43:34;25.50;29.90
75500;DHT22;64076;51.466;7.260;2024-02-21T14:46:00;25.60;29.90
75500;DHT22;64076;51.466;7.260;2024-02-21T14:48:30;25.60;29.80
75500;DHT22;64076;51.466;7.260;2024-02-21T14:51:00;25.70;29.80
75500;DHT22;64076;51.466;7.260;2024-02-21T14:53:25;25.80;29.80
75500;DHT22;64076;51.466;7.260;2024-02-21T14:55:51;25.80;29.70
75500;DHT22;64076;51.466;7.260;2024-02-21T14:58:17;25.80;29.70
75500;DHT22;64076;51.466;7.260;2024-02-21T15:00:45;25.80;29.70
75500;DHT22;64076;51.466;7.260;2024-02-21T15:03:12;25.80;29.70
75500;DHT22;64076;51.466;7.260;2024-02-21T15:05:41;25.80;29.60
75500;DHT22;64076;51.466;7.260;2024-02-21T15:08:06;25.90;29.70
75500;DHT22;64076;51.466;7.260;2024-02-21T15:10:34;25.90;29.70
75500;DHT22;64076;51.466;7.260;2024-02-21T15:13:00;25.90;29.60
75500;DHT22;64076;51.466;7.260;2024-02-21T15:15:25;25.90;29.70
75500;DHT22;64076;51.466;7.260;2024-02-21T15:17:51;25.90;29.60
75500;DHT22;64076;51.466;7.260;2024-02-21T15:20:19;25.90;29.60
75500;DHT22;64076;51.466;7.260;2024-02-21T15:22:44;25.90;29.60
75500;DHT22;64076;51.466;7.260;2024-02-21T15:25:10;25.90;29.50
75500;DHT22;64076;51.466;7.260;2024-02-21T15:27:43;25.90;29.50
75500;DHT22;64076;51.466;7.260;2024-02-21T15:30:10;25.90;29.50